Time;durP1;ratioP1;P1;durP2;ratioP2;P2;SDS_P1;SDS_P2;PMS_P1;PMS_P2;Temp;Humidity;BMP_temperature;BMP_pressure;BME280_temperature;BME280_humidity;BME280_pressure;Samples;Min_cycle;Max_cycle;Signal;HPM_P1;HPM_P2
2021/01/24 00:00:31;;;;;;;38.95;18.73;;;;;;;0.10;100.00;98905.75;5024276;28;20053;-58
2021/01/24 00:02:58;;;;;;;36.53;19.50;;;;;;;0.20;100.00;98900.25;5024766;28;20099;-56
2021/01/24 00:05:24;;;;;;;35.42;18.63;;;;;;;0.04;100.00;98908.00;5024241;28;20080;-56
2021/01/24 00:07:51;;;;;;;34.83;18.73;;;;;;;-0.04;100.00;98902.69;5010463;28;20050;-51
2021/01/24 00:10:17;;;;;;;34.40;18.83;;;;;;;-0.20;100.00;98896.19;5005003;28;20096;-52
2021/01/24 00:12:46;;;;;;;41.47;19.70;;;;;;;0.21;100.00;98897.78;5004930;28;20045;-54
2021/01/24 00:15:13;;;;;;;41.10;20.77;;;;;;;-0.23;100.00;98902.75;5004546;28;20058;-55
2021/01/24 00:17:39;;;;;;;41.65;19.60;;;;;;;0.06;100.00;98903.91;5004602;28;20053;-52
2021/01/24 00:20:08;;;;;;;40.90;19.25;;;;;;;0.35;100.00;98902.47;5004691;28;20054;-54
2021/01/24 00:22:36;;;;;;;34.45;18.17;;;;;;;0.59;100.00;98905.03;5004634;28;20425;-56
2021/01/24 00:25:04;;;;;;;34.60;18.80;;;;;;;0.26;100.00;98902.97;5004570;28;20395;-57
2021/01/24 00:27:31;;;;;;;34.53;17.42;;;;;;;0.35;100.00;98907.50;5004174;28;20506;-55
2021/01/24 00:29:58;;;;;;;39.83;18.70;;;;;;;0.37;100.00;98908.41;5004642;28;20045;-52
2021/01/24 00:32:24;;;;;;;41.20;19.67;;;;;;;-0.09;100.00;98906.69;5004619;28;20085;-55
2021/01/24 00:34:51;;;;;;;44.42;20.38;;;;;;;-0.14;100.00;98909.03;5008231;28;20066;-53
2021/01/24 00:37:17;;;;;;;36.22;18.30;;;;;;;0.26;100.00;98900.47;5008358;28;20117;-52
2021/01/24 00:39:44;;;;;;;38.33;19.48;;;;;;;0.53;100.00;98893.06;5008360;28;20140;-52
2021/01/24 00:42:11;;;;;;;40.33;18.38;;;;;;;-0.03;100.00;98901.88;5008125;28;20053;-52
2021/01/24 00:44:38;;;;;;;45.00;20.95;;;;;;;-0.23;100.00;98898.59;5008280;28;20498;-56
2021/01/24 00:47:05;;;;;;;44.25;19.60;;;;;;;-0.34;100.00;98904.84;5007711;28;20112;-55
2021/01/24 00:49:33;;;;;;;36.08;18.45;;;;;;;0.08;100.00;98910.69;5008000;28;20057;-56
2021/01/24 00:52:00;;;;;;;42.28;18.60;;;;;;;0.34;100.00;98908.31;5008094;28;20060;-56
2021/01/24 00:54:26;;;;;;;35.78;18.30;;;;;;;0.08;100.00;98910.69;5008053;28;20104;-53
2021/01/24 00:56:52;;;;;;;35.72;17.42;;;;;;;0.08;100.00;98912.34;5007841;28;20045;-53
2021/01/24 00:59:19;;;;;;;41.85;19.45;;;;;;;-0.20;100.00;98907.91;5008296;28;20045;-55
2021/01/24 01:01:45;;;;;;;43.78;20.00;;;;;;;-0.32;100.00;98905.78;5007676;28;20395;-56
2021/01/24 01:04:12;;;;;;;40.20;19.65;;;;;;;-0.27;100.00;98912.72;5007719;28;20054;-54
2021/01/24 01:06:39;;;;;;;50.47;21.65;;;;;;;-0.31;100.00;98904.97;5007884;28;20107;-56
2021/01/24 01:09:05;;;;;;;52.33;22.13;;;;;;;-0.12;100.00;98911.59;5005018;28;20072;-54
2021/01/24 01:11:31;;;;;;;51.80;20.90;;;;;;;0.02;100.00;98904.59;5007820;28;20508;-54
2021/01/24 01:13:58;;;;;;;46.45;20.38;;;;;;;-0.11;100.00;98899.06;5007473;28;20115;-55
2021/01/24 01:16:24;;;;;;;48.20;21.50;;;;;;;0.13;100.00;98894.09;5007243;28;20045;-52
2021/01/24 01:18:51;;;;;;;43.80;19.88;;;;;;;-0.10;100.00;98894.88;5007304;28;20061;-55
2021/01/24 01:21:17;;;;;;;40.78;19.02;;;;;;;0.27;100.00;98891.25;5007323;28;20160;-51
2021/01/24 01:23:44;;;;;;;40.58;18.63;;;;;;;-0.09;100.00;98889.94;5007141;28;20096;-56
2021/01/24 01:26:13;;;;;;;40.92;19.58;;;;;;;0.15;100.00;98892.53;5006987;28;20533;-56
2021/01/24 01:28:39;;;;;;;45.42;19.98;;;;;;;0.01;100.00;98897.84;5007351;28;20898;-54
2021/01/24 01:31:06;;;;;;;37.75;18.67;;;;;;;0.17;100.00;98890.91;5007039;28;20104;-55
2021/01/24 01:33:32;;;;;;;44.33;19.70;;;;;;;-0.16;100.00;98894.66;5007030;28;20042;-56
2021/01/24 01:36:00;;;;;;;48.67;19.77;;;;;;;-0.20;100.00;98887.78;5006764;28;20133;-53
2021/01/24 01:38:26;;;;;;;39.03;18.33;;;;;;;-0.05;100.00;98889.25;5007281;28;20080;-54
2021/01/24 01:40:53;;;;;;;36.03;17.83;;;;;;;0.03;100.00;98881.13;5006313;28;20045;-52
2021/01/24 01:43:20;;;;;;;43.13;18.70;;;;;;;0.19;100.00;98880.94;4983505;23;20081;-51
2021/01/24 01:45:46;;;;;;;45.88;20.15;;;;;;;-0.14;100.00;98888.91;4954601;28;20051;-52
2021/01/24 01:48:15;;;;;;;42.88;19.83;;;;;;;0.17;100.00;98885.03;4952790;28;20113;-50
2021/01/24 01:50:42;;;;;;;42.88;19.83;;;;;;;-0.06;100.00;98882.50;4953751;28;20051;-48
2021/01/24 01:53:08;;;;;;;39.78;18.38;;;;;;;-0.05;100.00;98885.84;4965393;28;20098;-56
2021/01/24 01:55:34;;;;;;;41.55;19.13;;;;;;;0.17;100.00;98880.84;4972195;28;20046;-54
2021/01/24 01:58:02;;;;;;;37.78;18.00;;;;;;;0.62;100.00;98892.56;4971798;28;20093;-48
2021/01/24 02:00:28;;;;;;;41.03;18.63;;;;;;;0.50;100.00;98890.44;4973029;28;20046;-52
2021/01/24 02:03:42;;;;;;;46.58;19.92;;;;;;;-0.02;100.00;98888.50;4974703;28;20050;-50
2021/01/24 02:06:18;;;;;;;38.05;18.52;;;;;;;0.38;100.00;98890.88;4975804;28;20472;-49
2021/01/24 02:09:07;;;;;;;42.10;19.52;;;;;;;0.10;100.00;98885.59;4992530;28;20061;-54
2021/01/24 02:11:59;;;;;;;44.83;19.88;;;;;;;0.33;100.00;98891.50;4988695;28;20046;-51
2021/01/24 02:14:44;;;;;;;42.35;18.50;;;;;;;0.21;100.00;98886.84;4985772;28;20054;-54
2021/01/24 02:17:17;;;;;;;44.08;19.90;;;;;;;0.59;100.00;98892.44;4990701;28;20436;-52
2021/01/24 02:20:09;;;;;;;44.15;19.55;;;;;;;0.14;100.00;98890.81;4992280;28;20048;-53
2021/01/24 02:22:40;;;;;;;48.42;21.13;;;;;;;0.19;100.00;98893.50;4988886;28;20461;-51
2021/01/24 02:25:27;;;;;;;47.10;20.25;;;;;;;-0.12;100.00;98888.97;4991154;28;20104;-49
2021/01/24 02:28:16;;;;;;;38.95;18.92;;;;;;;-0.06;100.00;98892.56;4991980;28;20460;-52
2021/01/24 02:30:42;;;;;;;52.60;20.52;;;;;;;-0.22;100.00;98892.78;4988633;28;20054;-56
2021/01/24 02:33:15;;;;;;;54.15;21.20;;;;;;;-0.24;100.00;98889.31;4990817;28;20054;-49
2021/01/24 02:35:46;;;;;;;55.92;22.85;;;;;;;-0.24;100.00;98883.44;4992949;28;20085;-55
2021/01/24 02:38:13;;;;;;;50.95;21.33;;;;;;;-0.22;100.00;98890.25;4990040;28;20078;-50
2021/01/24 02:40:41;;;;;;;55.75;23.35;;;;;;;-0.18;100.00;98894.63;4991716;28;20054;-50
2021/01/24 02:43:09;;;;;;;46.10;20.73;;;;;;;0.03;100.00;98888.69;4990554;28;20568;-51
2021/01/24 02:45:40;;;;;;;51.17;20.33;;;;;;;-0.07;100.00;98885.81;4990806;28;20042;-47
2021/01/24 02:48:12;;;;;;;54.40;22.60;;;;;;;-0.16;100.00;98887.97;4987012;28;20428;-49
2021/01/24 02:50:40;;;;;;;51.70;20.75;;;;;;;-0.15;100.00;98887.16;4991221;28;20105;-47
2021/01/24 02:53:08;;;;;;;52.03;21.17;;;;;;;-0.11;100.00;98885.63;4991133;28;20517;-52
2021/01/24 02:55:35;;;;;;;47.20;20.40;;;;;;;0.17;100.00;98883.34;4986548;28;20050;-47
2021/01/24 02:58:02;;;;;;;46.90;19.33;;;;;;;0.14;100.00;98877.34;4990256;28;20049;-57
2021/01/24 03:00:29;;;;;;;45.92;19.33;;;;;;;0.20;100.00;98880.13;4989021;28;20086;-52
2021/01/24 03:02:56;;;;;;;39.63;18.33;;;;;;;0.55;100.00;98873.84;4987512;28;20674;-49
2021/01/24 03:05:23;;;;;;;43.30;19.40;;;;;;;0.24;100.00;98872.75;4989745;28;20042;-53
2021/01/24 03:07:51;;;;;;;40.35;19.25;;;;;;;0.17;100.00;98873.28;4991660;28;20046;-53
2021/01/24 03:10:18;;;;;;;44.05;20.05;;;;;;;-0.02;100.00;98870.88;4989686;28;20464;-52
2021/01/24 03:13:11;;;;;;;54.97;22.48;;;;;;;-0.09;100.00;98871.47;4991144;28;20548;-51
2021/01/24 03:15:39;;;;;;;49.08;21.35;;;;;;;-0.05;100.00;98864.09;4988673;28;20465;-48
2021/01/24 03:18:10;;;;;;;58.10;23.77;;;;;;;-0.06;100.00;98871.56;4990103;28;20116;-54
2021/01/24 03:20:40;;;;;;;51.38;21.58;;;;;;;-0.01;100.00;98865.06;4990166;28;20079;-56
2021/01/24 03:23:07;;;;;;;57.47;21.90;;;;;;;0.03;100.00;98866.88;4989902;28;20042;-48
2021/01/24 03:25:38;;;;;;;58.50;21.48;;;;;;;-0.07;100.00;98865.69;4989802;28;20050;-47
2021/01/24 03:28:07;;;;;;;50.00;21.25;;;;;;;0.05;100.00;98860.28;4990078;28;20041;-50
2021/01/24 03:30:36;;;;;;;48.00;21.27;;;;;;;-0.04;100.00;98858.28;4989918;28;20524;-48
2021/01/24 03:33:04;;;;;;;49.17;21.45;;;;;;;0.01;100.00;98860.09;4990391;28;20585;-52
2021/01/24 03:35:31;;;;;;;47.80;21.30;;;;;;;0.02;100.00;98850.09;4987139;28;20055;-51
2021/01/24 03:37:58;;;;;;;50.55;20.40;;;;;;;0.07;100.00;98857.81;4988936;28;20077;-48
2021/01/24 03:40:24;;;;;;;55.15;22.63;;;;;;;-0.09;100.00;98846.31;4989521;28;20050;-48
2021/01/24 03:42:52;;;;;;;50.90;20.63;;;;;;;0.00;100.00;98851.69;4991102;28;20053;-46
2021/01/24 03:45:19;;;;;;;53.17;21.38;;;;;;;-0.04;100.00;98858.28;4989358;28;20460;-48
2021/01/24 03:47:45;;;;;;;49.97;21.00;;;;;;;0.12;100.00;98853.81;4991273;28;20343;-46
2021/01/24 03:50:12;;;;;;;55.17;21.55;;;;;;;0.13;100.00;98855.50;4986575;28;20053;-49
2021/01/24 03:52:38;;;;;;;56.05;22.27;;;;;;;0.00;100.00;98856.72;4994224;28;20041;-47
2021/01/24 03:55:05;;;;;;;51.83;21.42;;;;;;;0.04;100.00;98853.50;4990663;28;20054;-51
2021/01/24 03:57:33;;;;;;;52.78;20.60;;;;;;;0.03;100.00;98859.34;4989409;28;20069;-47
2021/01/24 03:59:59;;;;;;;56.97;21.40;;;;;;;-0.02;100.00;98853.28;4990946;28;20050;-45
2021/01/24 04:02:26;;;;;;;65.18;23.35;;;;;;;-0.06;100.00;98854.81;4986072;28;20050;-47
2021/01/24 04:04:52;;;;;;;65.28;23.30;;;;;;;-0.06;100.00;98852.31;4991797;28;20050;-51
2021/01/24 04:07:18;;;;;;;60.47;22.27;;;;;;;-0.07;100.00;98853.09;4988870;28;20092;-53
2021/01/24 04:09:45;;;;;;;61.50;22.70;;;;;;;-0.06;100.00;98844.75;4994525;28;20054;-50
2021/01/24 04:12:11;;;;;;;60.55;22.00;;;;;;;-0.08;100.00;98853.06;4993379;28;20206;-47
2021/01/24 04:14:38;;;;;;;65.10;22.23;;;;;;;-0.02;100.00;98843.22;4993965;28;20132;-48
2021/01/24 04:17:04;;;;;;;70.13;23.42;;;;;;;-0.10;100.00;98842.91;4994023;28;20050;-45
2021/01/24 04:19:32;;;;;;;65.82;22.33;;;;;;;-0.11;100.00;98846.25;4993279;28;20138;-47
2021/01/24 04:21:58;;;;;;;62.00;22.25;;;;;;;-0.07;100.00;98847.22;4994718;28;20085;-47
2021/01/24 04:24:25;;;;;;;66.05;22.70;;;;;;;-0.08;100.00;98848.03;4993066;28;20077;-51
2021/01/24 04:26:52;;;;;;;65.60;23.30;;;;;;;-0.04;100.00;98848.22;4994555;28;20054;-50
2021/01/24 04:29:19;;;;;;;62.38;21.33;;;;;;;0.06;100.00;98843.50;4993042;28;20105;-53
2021/01/24 04:31:45;;;;;;;68.60;23.40;;;;;;;-0.06;100.00;98843.91;4994796;28;20426;-50
2021/01/24 04:34:13;;;;;;;66.60;21.98;;;;;;;-0.03;100.00;98844.88;4991547;28;20109;-47
2021/01/24 04:36:39;;;;;;;66.70;21.65;;;;;;;-0.05;100.00;98838.94;4994305;28;20061;-51
2021/01/24 04:39:06;;;;;;;59.28;20.52;;;;;;;0.05;100.00;98834.22;4993715;28;20115;-51
2021/01/24 04:41:37;;;;;;;57.70;21.27;;;;;;;-0.01;100.00;98839.91;4990667;28;20402;-47
2021/01/24 04:44:05;;;;;;;48.92;19.08;;;;;;;0.07;100.00;98836.03;4989839;28;20596;-52
2021/01/24 04:46:35;;;;;;;58.10;21.50;;;;;;;0.01;100.00;98832.44;4992416;28;20046;-48
2021/01/24 04:49:03;;;;;;;59.13;20.45;;;;;;;0.03;100.00;98818.22;4991019;28;20121;-47
2021/01/24 04:51:30;;;;;;;55.90;18.80;;;;;;;-0.02;100.00;98821.44;4991199;28;20101;-50
2021/01/24 04:53:58;;;;;;;48.65;19.95;;;;;;;-0.04;100.00;98815.50;4986565;28;20112;-48
2021/01/24 04:56:25;;;;;;;50.80;20.52;;;;;;;0.00;100.00;98813.97;4992741;28;20043;-46
2021/01/24 04:58:54;;;;;;;49.63;19.65;;;;;;;0.04;100.00;98812.41;4994774;28;20502;-45
2021/01/24 05:01:23;;;;;;;63.80;19.67;;;;;;;-0.07;100.00;98815.38;4992485;28;20057;-49
2021/01/24 05:03:50;;;;;;;53.78;20.42;;;;;;;-0.07;100.00;98814.53;4999999;28;20050;-51
2021/01/24 05:06:16;;;;;;;55.53;19.00;;;;;;;-0.07;100.00;98815.38;4992792;28;20109;-53
2021/01/24 05:08:47;;;;;;;54.10;19.02;;;;;;;-0.04;100.00;98807.09;4992617;28;20070;-48
2021/01/24 05:11:14;;;;;;;55.47;19.15;;;;;;;-0.03;100.00;98811.31;4992823;28;20050;-48
2021/01/24 05:13:40;;;;;;;49.80;18.30;;;;;;;0.26;100.00;98812.38;4993793;28;20141;-53
2021/01/24 05:16:07;;;;;;;44.85;17.65;;;;;;;0.10;100.00;98798.41;4992820;28;20050;-50
2021/01/24 05:18:34;;;;;;;44.15;15.05;;;;;;;0.06;100.00;98803.25;4992640;28;20046;-48
2021/01/24 05:21:04;;;;;;;45.00;16.00;;;;;;;0.05;100.00;98802.41;4994382;28;20054;-51
2021/01/24 05:23:36;;;;;;;45.58;16.90;;;;;;;0.00;100.00;98813.97;4990435;28;20651;-52
2021/01/24 05:26:07;;;;;;;38.45;14.60;;;;;;;0.06;100.00;98810.81;4991154;28;20068;-54
2021/01/24 05:28:33;;;;;;;40.05;16.08;;;;;;;0.01;100.00;98815.66;4992441;28;20108;-48
2021/01/24 05:31:07;;;;;;;36.03;13.27;;;;;;;0.27;100.00;98808.19;4991657;28;20054;-55
2021/01/24 05:33:34;;;;;;;37.47;13.80;;;;;;;0.10;100.00;98812.66;4989987;28;20042;-45
2021/01/24 05:36:06;;;;;;;29.08;12.15;;;;;;;0.24;100.00;98808.97;4992295;28;20057;-47
2021/01/24 05:38:33;;;;;;;26.88;10.77;;;;;;;0.21;100.00;98807.19;4992380;28;20046;-47
2021/01/24 05:41:01;;;;;;;31.55;12.48;;;;;;;0.06;100.00;98810.81;4993637;28;20049;-50
2021/01/24 05:43:51;;;;;;;31.13;11.77;;;;;;;0.14;100.00;98811.94;4992259;28;20433;-52
2021/01/24 05:46:17;;;;;;;25.58;10.00;;;;;;;0.37;100.00;98812.75;4985677;28;20050;-51
2021/01/24 05:48:49;;;;;;;22.80;10.60;;;;;;;0.57;100.00;98814.31;4993896;28;20050;-50
2021/01/24 05:51:16;;;;;;;21.58;10.05;;;;;;;0.23;100.00;98819.81;4986992;28;20536;-49
2021/01/24 05:53:46;;;;;;;22.92;10.10;;;;;;;0.22;100.00;98818.09;4993539;28;20050;-52
2021/01/24 05:56:17;;;;;;;20.35;10.27;;;;;;;0.50;100.00;98804.84;4988730;28;20513;-51
2021/01/24 05:58:43;;;;;;;20.75;9.65;;;;;;;0.88;100.00;98806.16;4993893;28;20093;-48
2021/01/24 06:01:10;;;;;;;20.00;9.23;;;;;;;0.49;100.00;98798.09;4992655;28;20175;-50
2021/01/24 06:03:38;;;;;;;19.52;8.77;;;;;;;0.37;100.00;98807.72;4992152;28;20056;-46
2021/01/24 06:06:05;;;;;;;18.38;9.40;;;;;;;0.61;100.00;98811.13;4992500;28;20062;-50
2021/01/24 06:08:32;;;;;;;19.25;8.98;;;;;;;0.36;100.00;98816.06;4992223;28;20058;-51
2021/01/24 06:10:59;;;;;;;23.38;9.43;;;;;;;0.32;100.00;98819.28;4993480;28;20057;-50
2021/01/24 06:13:28;;;;;;;27.17;9.82;;;;;;;0.25;100.00;98824.09;4990857;28;20050;-51
2021/01/24 06:16:05;;;;;;;23.73;9.43;;;;;;;0.20;100.00;98820.56;4993253;28;20049;-51
2021/01/24 06:18:41;;;;;;;19.63;9.55;;;;;;;0.32;100.00;98820.13;4989425;28;20113;-51
2021/01/24 06:21:11;;;;;;;;;;;;;;;0.24;100.00;98824.91;4992158;28;20791;-48
2021/01/24 06:24:03;;;;;;;22.05;10.13;;;;;;;0.28;100.00;98815.81;4995401;28;19952;-52
2021/01/24 06:26:31;;;;;;;22.15;9.05;;;;;;;0.18;100.00;98817.13;4987736;28;20042;-54
2021/01/24 06:29:03;;;;;;;25.67;9.75;;;;;;;0.07;100.00;98817.56;4996521;28;20621;-47
2021/01/24 06:31:30;;;;;;;25.27;10.40;;;;;;;0.09;100.00;98818.44;4990753;28;20049;-48
2021/01/24 06:34:06;;;;;;;23.13;9.52;;;;;;;0.20;100.00;98814.69;4988478;28;20477;-50
2021/01/24 06:37:13;;;;;;;20.83;9.13;;;;;;;0.14;100.00;98825.38;4991033;28;20055;-48
2021/01/24 06:39:49;;;;;;;16.02;7.18;;;;;;;0.16;100.00;98825.44;4989708;28;20097;-52
2021/01/24 06:43:09;;;;;;;17.30;7.05;;;;;;;0.38;100.00;98829.59;4985024;28;20390;-52
2021/01/24 06:45:38;;;;;;;15.10;7.82;;;;;;;0.29;100.00;98821.72;4930397;28;20091;-49
2021/01/24 06:48:05;;;;;;;15.93;7.30;;;;;;;0.51;100.00;98824.19;4978221;28;20053;-48
2021/01/24 06:50:41;;;;;;;14.88;6.50;;;;;;;0.69;100.00;98811.38;4991088;28;20118;-53
2021/01/24 06:53:19;;;;;;;13.85;7.25;;;;;;;0.63;100.00;98822.09;4990157;28;20112;-52
2021/01/24 06:56:05;;;;;;;14.57;5.78;;;;;;;0.49;100.00;98815.72;4992686;28;20642;-47
2021/01/24 06:58:46;;;;;;;14.10;6.63;;;;;;;0.33;100.00;98819.38;4987894;28;20808;-50
2021/01/24 07:01:29;;;;;;;13.82;6.57;;;;;;;0.28;100.00;98822.50;4989357;28;20414;-53
2021/01/24 07:04:18;;;;;;;14.20;6.50;;;;;;;0.64;100.00;98826.31;4986051;28;20871;-51
2021/01/24 07:06:45;;;;;;;14.65;6.32;;;;;;;0.27;100.00;98835.88;4987619;28;20050;-51
2021/01/24 07:09:27;;;;;;;12.70;6.63;;;;;;;0.21;100.00;98823.94;4987951;28;20106;-52
2021/01/24 07:11:57;;;;;;;10.55;5.47;;;;;;;0.57;100.00;98834.47;4987597;28;20058;-46
2021/01/24 07:14:32;;;;;;;15.68;6.07;;;;;;;0.30;100.00;98826.78;4988579;28;20087;-46
2021/01/24 07:17:01;;;;;;;17.90;7.13;;;;;;;0.25;100.00;98825.78;4983245;28;20164;-49
2021/01/24 07:19:30;;;;;;;14.68;5.65;;;;;;;0.20;100.00;98828.13;4990136;28;20038;-48
2021/01/24 07:21:56;;;;;;;13.77;6.25;;;;;;;0.39;100.00;98829.63;4982726;28;20485;-49
2021/01/24 07:24:24;;;;;;;11.40;6.10;;;;;;;0.40;100.00;98823.78;4985675;28;20052;-50
2021/01/24 07:26:55;;;;;;;14.68;6.15;;;;;;;0.59;100.00;98827.81;4983115;28;20057;-54
2021/01/24 07:29:22;;;;;;;13.07;6.35;;;;;;;0.54;100.00;98831.84;4985299;28;20042;-51
2021/01/24 07:31:49;;;;;;;17.52;6.43;;;;;;;0.24;100.00;98831.63;4985623;28;20124;-47
2021/01/24 07:34:21;;;;;;;15.63;6.72;;;;;;;0.43;100.00;98826.44;4986677;28;20058;-46
2021/01/24 07:36:49;;;;;;;18.38;7.78;;;;;;;0.42;100.00;98831.44;4985343;28;20140;-51
2021/01/24 07:39:15;;;;;;;19.42;8.27;;;;;;;0.54;100.00;98830.97;4980447;28;20471;-48
2021/01/24 07:41:50;;;;;;;20.00;8.85;;;;;;;0.28;100.00;98833.44;4985650;28;20101;-54
2021/01/24 07:44:20;;;;;;;19.75;8.73;;;;;;;0.73;100.00;98835.84;5000288;23;20523;-86
2021/01/24 07:46:46;;;;;;;19.23;8.32;;;;;;;0.47;100.00;98827.41;4942346;28;20874;-86
2021/01/24 07:49:14;;;;;;;19.23;9.80;;;;;;;0.63;100.00;98831.31;4957069;28;20759;-86
2021/01/24 07:51:42;;;;;;;26.10;12.65;;;;;;;0.77;100.00;98835.16;4984930;28;20138;-83
2021/01/24 07:54:09;;;;;;;20.20;10.25;;;;;;;1.22;100.00;98838.38;4963763;28;20132;-86
2021/01/24 07:56:36;;;;;;;20.23;10.00;;;;;;;0.69;100.00;98834.03;4972548;28;20046;-86
2021/01/24 07:59:03;;;;;;;24.05;10.38;;;;;;;0.57;100.00;98841.19;4967153;28;20062;-86
2021/01/24 08:01:34;;;;;;;25.77;11.05;;;;;;;0.60;100.00;98843.78;4974214;28;20157;-86
2021/01/24 08:04:04;;;;;;;23.15;10.73;;;;;;;0.48;100.00;98837.53;4959206;28;20051;-83
2021/01/24 08:06:36;;;;;;;27.20;13.02;;;;;;;0.46;100.00;98846.69;4960420;28;20068;-87
2021/01/24 08:09:09;;;;;;;25.20;12.15;;;;;;;0.50;100.00;98840.94;4964387;28;20047;-86
2021/01/24 08:11:36;;;;;;;25.00;11.80;;;;;;;0.43;100.00;98843.19;4961813;28;20113;-84
2021/01/24 08:14:04;;;;;;;24.58;11.45;;;;;;;0.61;100.00;98833.78;4960142;28;20050;-86
2021/01/24 08:16:40;;;;;;;26.00;12.60;;;;;;;0.45;100.00;98839.91;4967425;28;20056;-89
2021/01/24 08:19:11;;;;;;;24.77;10.82;;;;;;;0.60;100.00;98828.66;4968618;28;20047;-86
2021/01/24 08:21:38;;;;;;;30.10;11.23;;;;;;;0.53;100.00;98825.09;4959075;28;20054;-85
2021/01/24 08:24:08;;;;;;;23.08;11.52;;;;;;;0.94;100.00;98829.03;4968688;28;20050;-86
2021/01/24 08:26:36;;;;;;;27.98;11.05;;;;;;;0.55;100.00;98831.03;4955075;28;20053;-86
2021/01/24 08:29:03;;;;;;;20.20;10.73;;;;;;;0.61;100.00;98830.41;4961766;28;20054;-86
2021/01/24 08:31:31;;;;;;;22.20;10.00;;;;;;;0.71;100.00;98829.91;4961674;28;20047;-85
2021/01/24 08:33:59;;;;;;;18.60;9.82;;;;;;;0.56;100.00;98840.31;4964546;28;20059;-85
2021/01/24 08:36:29;;;;;;;17.08;9.50;;;;;;;0.70;100.00;98829.06;4972492;28;20047;-86
2021/01/24 08:38:59;;;;;;;17.20;8.57;;;;;;;0.65;100.00;98830.56;4976600;28;20121;-85
2021/01/24 08:41:34;;;;;;;18.80;8.52;;;;;;;0.69;100.00;98834.03;4977491;28;20043;-85
2021/01/24 08:44:15;;;;;;;17.60;8.63;;;;;;;0.63;100.00;98836.34;4961536;28;20054;-85
2021/01/24 08:46:43;;;;;;;15.30;7.82;;;;;;;0.70;100.00;98839.13;4959845;28;20051;-85
2021/01/24 08:49:19;;;;;;;12.85;6.82;;;;;;;0.59;100.00;98837.88;4958709;28;20082;-86
2021/01/24 08:51:53;;;;;;;15.50;7.97;;;;;;;0.66;100.00;98831.44;4962959;28;20134;-84
2021/01/24 08:54:33;;;;;;;15.77;8.70;;;;;;;0.76;100.00;98836.81;4983593;28;20054;-86
2021/01/24 08:57:20;;;;;;;16.73;8.02;;;;;;;0.74;100.00;98838.44;4963815;28;20057;-85
2021/01/24 08:59:49;;;;;;;16.20;8.80;;;;;;;0.89;100.00;98842.28;4983082;28;20047;-85
2021/01/24 09:02:31;;;;;;;16.30;7.38;;;;;;;0.77;100.00;98841.06;4992542;28;20466;-83
2021/01/24 09:05:05;;;;;;;13.98;7.97;;;;;;;0.93;100.00;98839.94;4979941;28;20064;-85
2021/01/24 09:07:46;;;;;;;20.13;8.00;;;;;;;0.84;100.00;98843.81;4967227;28;20147;-85
2021/01/24 09:10:21;;;;;;;20.05;8.48;;;;;;;0.71;100.00;98843.38;4953300;28;20047;-86
2021/01/24 09:12:52;;;;;;;16.35;7.45;;;;;;;0.85;100.00;98841.31;4985737;28;20054;-86
2021/01/24 09:15:20;;;;;;;13.20;7.10;;;;;;;0.93;100.00;98834.88;4967662;28;20058;-85
2021/01/24 09:17:49;;;;;;;16.55;8.13;;;;;;;0.86;100.00;98843.03;4985948;28;20501;-84
2021/01/24 09:20:17;;;;;;;13.13;7.50;;;;;;;0.84;100.00;98839.63;4959773;28;20054;-85
2021/01/24 09:22:44;;;;;;;15.25;7.82;;;;;;;0.74;100.00;98837.59;4966763;28;21718;-86
2021/01/24 09:25:11;;;;;;;14.40;6.13;;;;;;;1.01;100.00;98842.69;4966593;28;20055;-85
2021/01/24 09:27:38;;;;;;;11.07;6.82;;;;;;;0.92;100.00;98848.25;5005044;28;20718;-86
2021/01/24 09:30:08;;;;;;;13.30;7.40;;;;;;;1.04;100.00;98842.81;5001661;28;20061;-85
2021/01/24 09:32:34;;;;;;;13.18;7.20;;;;;;;1.08;100.00;98843.75;4974967;28;20047;-85
2021/01/24 09:35:01;;;;;;;12.43;5.88;;;;;;;1.40;100.00;98844.81;4979110;28;20109;-86
2021/01/24 09:37:29;;;;;;;12.70;6.93;;;;;;;1.19;100.00;98845.81;4974508;28;20054;-86
2021/01/24 09:39:56;;;;;;;12.30;6.30;;;;;;;1.06;100.00;98842.84;4946874;28;20069;-86
2021/01/24 09:42:22;;;;;;;10.25;6.47;;;;;;;1.36;100.00;98832.91;4968383;28;20060;-82
2021/01/24 09:44:49;;;;;;;12.63;6.63;;;;;;;1.39;100.00;98833.88;4962037;28;20054;-83
2021/01/24 09:47:17;;;;;;;13.80;7.13;;;;;;;0.97;100.00;98836.72;4971402;28;20050;-82
2021/01/24 09:49:44;;;;;;;13.48;7.13;;;;;;;0.96;100.00;98834.13;4967973;28;20055;-83
2021/01/24 09:52:10;;;;;;;13.15;7.90;;;;;;;1.09;100.00;98840.44;4972098;28;20077;-85
2021/01/24 09:54:37;;;;;;;14.13;6.78;;;;;;;1.26;100.00;98830.09;4966060;28;20058;-83
2021/01/24 09:57:03;;;;;;;14.52;8.45;;;;;;;1.16;100.00;98835.66;4997340;28;20054;-83
2021/01/24 09:59:30;;;;;;;14.60;7.55;;;;;;;0.93;100.00;98844.13;4972620;28;20126;-83
2021/01/24 10:01:57;;;;;;;14.55;7.25;;;;;;;0.92;100.00;98839.84;4970409;28;20680;-84
2021/01/24 10:04:24;;;;;;;16.58;8.25;;;;;;;0.86;100.00;98830.44;4969597;28;20054;-83
2021/01/24 10:06:50;;;;;;;13.23;7.68;;;;;;;1.31;100.00;98832.78;4952061;28;20074;-86
2021/01/24 10:09:17;;;;;;;14.80;7.03;;;;;;;0.94;100.00;98838.25;4963198;28;20050;-85
2021/01/24 10:11:43;;;;;;;13.45;7.45;;;;;;;0.90;100.00;98833.91;4978019;28;20055;-83
2021/01/24 10:14:10;;;;;;;15.80;8.15;;;;;;;0.95;100.00;98837.44;4958471;28;20103;-82
2021/01/24 10:16:38;;;;;;;13.38;7.85;;;;;;;1.30;100.00;98833.59;4979844;28;20055;-85
2021/01/24 10:19:04;;;;;;;15.35;8.40;;;;;;;1.08;100.00;98842.09;4989628;28;20092;-83
2021/01/24 10:21:31;;;;;;;14.00;7.80;;;;;;;1.11;100.00;98841.31;4962722;28;20497;-86
2021/01/24 10:23:57;;;;;;;17.70;9.02;;;;;;;0.91;100.00;98840.66;4983926;28;20054;-86
2021/01/24 10:26:24;;;;;;;17.10;8.95;;;;;;;0.93;100.00;98839.94;4954299;28;20054;-85
2021/01/24 10:28:50;;;;;;;14.23;8.60;;;;;;;0.88;100.00;98833.00;4958137;28;20058;-86
2021/01/24 10:31:17;;;;;;;17.08;9.05;;;;;;;0.85;100.00;98843.00;4971704;28;20039;-86
2021/01/24 10:33:45;;;;;;;17.73;8.95;;;;;;;0.83;100.00;98837.88;4962492;28;20162;-86
2021/01/24 10:36:11;;;;;;;20.88;9.73;;;;;;;0.71;100.00;98834.97;4973832;28;20066;-85
2021/01/24 10:38:39;;;;;;;19.40;9.35;;;;;;;0.76;100.00;98824.22;4960812;28;20097;-85
2021/01/24 10:41:06;;;;;;;14.82;9.48;;;;;;;0.75;100.00;98841.81;4980757;28;20046;-85
2021/01/24 10:43:33;;;;;;;18.35;9.13;;;;;;;0.99;100.00;98832.56;4975471;28;20063;-85
2021/01/24 10:46:03;;;;;;;20.15;10.40;;;;;;;0.83;100.00;98835.34;4965292;28;20065;-85
2021/01/24 10:48:30;;;;;;;18.25;9.95;;;;;;;0.79;100.00;98836.09;4955265;28;20046;-86
2021/01/24 10:50:56;;;;;;;18.67;9.35;;;;;;;0.99;100.00;98841.78;4959619;28;20050;-83
2021/01/24 10:53:23;;;;;;;17.83;9.65;;;;;;;1.05;100.00;98846.16;4961267;28;20061;-87
2021/01/24 10:56:00;;;;;;;18.35;9.57;;;;;;;1.10;100.00;98840.47;4952599;28;20051;-84
2021/01/24 10:58:26;;;;;;;16.55;9.20;;;;;;;1.03;100.00;98846.13;4911626;28;20448;-55
2021/01/24 11:00:53;;;;;;;15.98;9.32;;;;;;;1.06;100.00;98842.84;4918906;28;20112;-52
2021/01/24 11:03:19;;;;;;;18.20;9.40;;;;;;;1.18;100.00;98834.03;4928052;28;20493;-54
2021/01/24 11:05:46;;;;;;;14.48;8.15;;;;;;;0.95;100.00;98838.31;4944447;28;20071;-53
2021/01/24 11:08:13;;;;;;;16.65;8.95;;;;;;;0.86;100.00;98840.50;4945796;28;20098;-57
2021/01/24 11:10:39;;;;;;;15.18;9.23;;;;;;;1.09;100.00;98833.72;4944964;28;20499;-55
2021/01/24 11:13:05;;;;;;;14.07;8.30;;;;;;;1.15;100.00;98840.63;4937910;28;20538;-56
2021/01/24 11:15:32;;;;;;;15.60;8.82;;;;;;;1.05;100.00;98838.59;4953260;28;20109;-58
2021/01/24 11:17:59;;;;;;;19.48;9.25;;;;;;;1.02;100.00;98835.19;4953531;28;20058;-53
2021/01/24 11:20:26;;;;;;;16.40;9.15;;;;;;;1.21;100.00;98834.13;4954554;28;20065;-52
2021/01/24 11:22:52;;;;;;;15.70;8.55;;;;;;;1.02;100.00;98837.72;4950179;28;20559;-52
2021/01/24 11:25:19;;;;;;;15.23;8.02;;;;;;;1.89;100.00;98838.75;4950005;28;20050;-52
2021/01/24 11:27:45;;;;;;;16.65;8.88;;;;;;;1.13;100.00;98835.53;4950281;28;20070;-56
2021/01/24 11:30:12;;;;;;;15.57;8.02;;;;;;;1.09;100.00;98835.41;4953079;28;20113;-58